Slagle, Missouri
Current Conditions -  °F | °C
As of 7:52 AM on Monday 22 Dec 2014 (Local Time) from KSGF Reporting Station
Light Rain Light Rain  
Wind Chill:   Ceiling: 2300
Heat Index:   Visibility: 7mi
Dew Point:   Wind: 14mph
Humidity: 93%   Direction: 150°SSE
Pressure: 29.64"   Gusts: NA
Location:  37.6066°N, 93.4143°W
Report Text: KSGF 221352Z 15012KT 7SM -RA SCT005 OVC023 06/05 A2964 RMK AO2 RAB50 SLP039 P0000 T00610050
Loading
Personal Weather Stations






























Interactive Weather Map New forecast layout! Learn more

10-Day Weather Forecast

Advertisements
Track Severe Weather on mobile